MAPA DE AEROPUERTO

INFORMACIÓN METAR y TAF

METAR FOR EDDP
ADDS - METARS form results

(0133 UTC 22 February 2020)
Data provider http://aviationweather.gov/metar/data/
 
METAR text: EDDP 220120Z 22015KT CAVOK 06/00 Q1023 NOSIG
Conditions at: EDDP (LEIPZIG/SCHKEUDI, DE) observed 0120 UTC 22 February 2020
Temperature: 6.0°C (43°F)
Dewpoint: 0.0°C (32°F) [RH = 65%]
Pressure (altimeter): 30.21 inches Hg (1023.0 mb)
Winds: from the SW (220 degrees) at 17 MPH (15 knots; 7.7 m/s)
Visibility: 6 or more miles (10+ km)
Ceiling: ceiling and visibility are OK
Clouds: unknown
Weather: no significant weather observed at this time

METAR text: EDDP 220050Z 21015KT CAVOK 06/00 Q1023 NOSIG
Conditions at: EDDP (LEIPZIG/SCHKEUDI, DE) observed 0050 UTC 22 February 2020
Temperature: 6.0°C (43°F)
Dewpoint: 0.0°C (32°F) [RH = 65%]
Pressure (altimeter): 30.21 inches Hg (1023.0 mb)
Winds: from the SSW (210 degrees) at 17 MPH (15 knots; 7.7 m/s)
Visibility: 6 or more miles (10+ km)
Ceiling: ceiling and visibility are OK
Clouds: unknown
Weather: no significant weather observed at this time

Forecast for: EDDP (LEIPZIG/SCHKEUDI, DE)
Text: TAF EDDP 212300Z 2200/2224 21015KT 9999 FEW040
Forecast period: 0000 to 0100 UTC 22 February 2020
Forecast type: FROM: standard forecast or significant change
Winds: from the SSW (210 degrees) at 17 MPH (15 knots; 7.7 m/s)
Visibility: 6 or more miles 10+ km)
Ceiling: at least 12,000 feet AGL
Clouds: few clouds at 4000 feet AGL
Weather: no significant weather forecast for this period
Text: BECMG 2201/2204 22015G25KT
Forecast period: 0100 to 0700 UTC 22 February 2020
Forecast type: BECOMING: Conditions expected to become as follows by 0400 UTC 22 February 2020
Winds: from the SW (220 degrees) at 17 MPH (15 knots; 7.7 m/s)
gusting to 29 MPH (25 knots; 12.9 m/s)
Visibility: 6 or more miles 10+ km)
Ceiling: at least 12,000 feet AGL
Clouds: few clouds at 4000 feet AGL
Weather: no significant weather forecast for this period
Text: BECMG 2207/2210 23020G35KT
Forecast period: 0700 UTC 22 February 2020 to 0000 UTC 23 February 2020
Forecast type: BECOMING: Conditions expected to become as follows by 1000 UTC 22 February 2020
Winds: from the SW (230 degrees) at 23 MPH (20 knots; 10.3 m/s)
gusting to 40 MPH (35 knots; 18.0 m/s)
Visibility: 6 or more miles 10+ km)
Ceiling: at least 12,000 feet AGL
Clouds: few clouds at 4000 feet AGL
Weather: no significant weather forecast for this period